sensor_id;sensor_type;location;lat;lon;timestamp;P1;durP1;ratioP1;P2;durP2;ratioP2
47167;SDS011;32931;47.778;17.806;2023-08-31T00:01:10;6.68;;;2.95;;
47167;SDS011;32931;47.778;17.806;2023-08-31T00:03:37;8.75;;;3.20;;
47167;SDS011;32931;47.778;17.806;2023-08-31T00:06:03;7.22;;;3.28;;
47167;SDS011;32931;47.778;17.806;2023-08-31T00:08:33;9.73;;;3.30;;
47167;SDS011;32931;47.778;17.806;2023-08-31T00:11:00;4.80;;;3.30;;
47167;SDS011;32931;47.778;17.806;2023-08-31T00:13:26;4.10;;;2.95;;
47167;SDS011;32931;47.778;17.806;2023-08-31T00:15:56;5.70;;;2.80;;
47167;SDS011;32931;47.778;17.806;2023-08-31T00:18:23;7.60;;;3.40;;
47167;SDS011;32931;47.778;17.806;2023-08-31T00:20:52;3.80;;;3.03;;
47167;SDS011;32931;47.778;17.806;2023-08-31T00:23:19;4.93;;;3.05;;
47167;SDS011;32931;47.778;17.806;2023-08-31T00:25:46;9.13;;;3.15;;
47167;SDS011;32931;47.778;17.806;2023-08-31T00:28:13;5.15;;;3.30;;
47167;SDS011;32931;47.778;17.806;2023-08-31T00:30:44;4.60;;;3.13;;
47167;SDS011;32931;47.778;17.806;2023-08-31T00:33:11;7.13;;;3.50;;
47167;SDS011;32931;47.778;17.806;2023-08-31T00:35:37;6.97;;;3.42;;
47167;SDS011;32931;47.778;17.806;2023-08-31T00:38:08;4.47;;;3.40;;
47167;SDS011;32931;47.778;17.806;2023-08-31T00:40:37;5.72;;;3.70;;
47167;SDS011;32931;47.778;17.806;2023-08-31T00:43:06;8.40;;;3.40;;
47167;SDS011;32931;47.778;17.806;2023-08-31T00:45:33;4.28;;;3.20;;
47167;SDS011;32931;47.778;17.806;2023-08-31T00:48:00;7.38;;;3.20;;
47167;SDS011;32931;47.778;17.806;2023-08-31T00:50:26;6.78;;;3.60;;
47167;SDS011;32931;47.778;17.806;2023-08-31T00:52:52;6.53;;;3.38;;
47167;SDS011;32931;47.778;17.806;2023-08-31T00:55:19;4.68;;;2.80;;
47167;SDS011;32931;47.778;17.806;2023-08-31T00:57:45;6.47;;;2.85;;
47167;SDS011;32931;47.778;17.806;2023-08-31T01:00:11;3.92;;;2.80;;
47167;SDS011;32931;47.778;17.806;2023-08-31T01:05:27;5.47;;;2.92;;
47167;SDS011;32931;47.778;17.806;2023-08-31T01:14:10;6.10;;;3.20;;
47167;SDS011;32931;47.778;17.806;2023-08-31T01:16:41;9.48;;;3.25;;
47167;SDS011;32931;47.778;17.806;2023-08-31T01:21:54;4.85;;;3.20;;
47167;SDS011;32931;47.778;17.806;2023-08-31T01:24:25;5.72;;;3.30;;
47167;SDS011;32931;47.778;17.806;2023-08-31T01:26:52;4.63;;;3.10;;
47167;SDS011;32931;47.778;17.806;2023-08-31T01:29:18;5.80;;;3.55;;
47167;SDS011;32931;47.778;17.806;2023-08-31T01:31:45;4.70;;;3.10;;
47167;SDS011;32931;47.778;17.806;2023-08-31T01:34:11;6.88;;;3.13;;
47167;SDS011;32931;47.778;17.806;2023-08-31T01:36:38;6.60;;;3.17;;
47167;SDS011;32931;47.778;17.806;2023-08-31T01:39:44;4.18;;;2.85;;
47167;SDS011;32931;47.778;17.806;2023-08-31T01:42:07;5.85;;;3.03;;
47167;SDS011;32931;47.778;17.806;2023-08-31T01:44:36;5.35;;;3.00;;
47167;SDS011;32931;47.778;17.806;2023-08-31T01:47:04;6.88;;;3.47;;
47167;SDS011;32931;47.778;17.806;2023-08-31T01:49:38;6.95;;;3.30;;
47167;SDS011;32931;47.778;17.806;2023-08-31T01:52:05;6.63;;;3.30;;
47167;SDS011;32931;47.778;17.806;2023-08-31T01:54:31;6.13;;;2.97;;
47167;SDS011;32931;47.778;17.806;2023-08-31T01:56:58;6.38;;;2.83;;
47167;SDS011;32931;47.778;17.806;2023-08-31T01:59:24;5.45;;;3.13;;
47167;SDS011;32931;47.778;17.806;2023-08-31T02:01:50;5.90;;;3.10;;
47167;SDS011;32931;47.778;17.806;2023-08-31T02:04:17;4.32;;;2.90;;
47167;SDS011;32931;47.778;17.806;2023-08-31T02:06:43;8.65;;;3.13;;
47167;SDS011;32931;47.778;17.806;2023-08-31T02:09:09;7.50;;;3.42;;
47167;SDS011;32931;47.778;17.806;2023-08-31T02:11:35;9.02;;;3.17;;
47167;SDS011;32931;47.778;17.806;2023-08-31T02:14:03;7.65;;;3.05;;
47167;SDS011;32931;47.778;17.806;2023-08-31T02:16:31;9.30;;;3.28;;
47167;SDS011;32931;47.778;17.806;2023-08-31T02:18:58;6.40;;;3.40;;
47167;SDS011;32931;47.778;17.806;2023-08-31T02:21:24;9.82;;;3.35;;
47167;SDS011;32931;47.778;17.806;2023-08-31T02:23:50;11.98;;;3.15;;
47167;SDS011;32931;47.778;17.806;2023-08-31T02:26:16;5.47;;;2.60;;
47167;SDS011;32931;47.778;17.806;2023-08-31T02:28:43;6.00;;;3.60;;
47167;SDS011;32931;47.778;17.806;2023-08-31T02:31:09;5.10;;;3.03;;
47167;SDS011;32931;47.778;17.806;2023-08-31T02:33:37;6.50;;;3.10;;
47167;SDS011;32931;47.778;17.806;2023-08-31T02:36:03;6.20;;;3.53;;
47167;SDS011;32931;47.778;17.806;2023-08-31T02:38:29;6.25;;;2.80;;
47167;SDS011;32931;47.778;17.806;2023-08-31T02:40:56;7.47;;;3.22;;
47167;SDS011;32931;47.778;17.806;2023-08-31T02:43:22;8.68;;;2.78;;
47167;SDS011;32931;47.778;17.806;2023-08-31T02:45:48;3.80;;;2.75;;
47167;SDS011;32931;47.778;17.806;2023-08-31T02:48:14;4.60;;;3.22;;
47167;SDS011;32931;47.778;17.806;2023-08-31T02:50:40;4.00;;;2.88;;
47167;SDS011;32931;47.778;17.806;2023-08-31T02:53:06;10.73;;;3.13;;
47167;SDS011;32931;47.778;17.806;2023-08-31T02:55:33;5.85;;;3.00;;
47167;SDS011;32931;47.778;17.806;2023-08-31T02:57:59;4.57;;;2.90;;
47167;SDS011;32931;47.778;17.806;2023-08-31T03:00:25;5.00;;;2.85;;
47167;SDS011;32931;47.778;17.806;2023-08-31T03:02:51;6.78;;;3.15;;
47167;SDS011;32931;47.778;17.806;2023-08-31T03:05:18;5.88;;;3.00;;
47167;SDS011;32931;47.778;17.806;2023-08-31T03:07:44;3.70;;;3.08;;
47167;SDS011;32931;47.778;17.806;2023-08-31T03:10:11;9.20;;;3.20;;
47167;SDS011;32931;47.778;17.806;2023-08-31T03:12:37;11.45;;;3.20;;
47167;SDS011;32931;47.778;17.806;2023-08-31T03:15:05;3.30;;;2.90;;
47167;SDS011;32931;47.778;17.806;2023-08-31T03:17:31;8.27;;;3.22;;
47167;SDS011;32931;47.778;17.806;2023-08-31T03:19:57;9.77;;;3.30;;
47167;SDS011;32931;47.778;17.806;2023-08-31T03:22:24;6.07;;;3.10;;
47167;SDS011;32931;47.778;17.806;2023-08-31T03:24:50;4.25;;;3.00;;
47167;SDS011;32931;47.778;17.806;2023-08-31T03:27:16;4.45;;;3.20;;
47167;SDS011;32931;47.778;17.806;2023-08-31T03:29:42;9.80;;;3.22;;
47167;SDS011;32931;47.778;17.806;2023-08-31T03:32:08;4.47;;;3.00;;
47167;SDS011;32931;47.778;17.806;2023-08-31T03:34:34;7.32;;;3.20;;
47167;SDS011;32931;47.778;17.806;2023-08-31T03:37:01;7.85;;;3.20;;
47167;SDS011;32931;47.778;17.806;2023-08-31T03:39:27;7.43;;;3.60;;
47167;SDS011;32931;47.778;17.806;2023-08-31T03:41:53;9.60;;;3.80;;
47167;SDS011;32931;47.778;17.806;2023-08-31T03:44:22;5.82;;;3.40;;
47167;SDS011;32931;47.778;17.806;2023-08-31T03:46:49;6.53;;;3.08;;
47167;SDS011;32931;47.778;17.806;2023-08-31T03:49:15;6.00;;;3.63;;
47167;SDS011;32931;47.778;17.806;2023-08-31T03:51:41;5.60;;;3.20;;
47167;SDS011;32931;47.778;17.806;2023-08-31T03:54:07;5.88;;;3.00;;
47167;SDS011;32931;47.778;17.806;2023-08-31T03:56:33;8.25;;;3.17;;
47167;SDS011;32931;47.778;17.806;2023-08-31T03:59:01;9.98;;;3.13;;
47167;SDS011;32931;47.778;17.806;2023-08-31T04:01:30;7.43;;;3.33;;
47167;SDS011;32931;47.778;17.806;2023-08-31T04:03:56;4.90;;;2.90;;
47167;SDS011;32931;47.778;17.806;2023-08-31T04:06:22;6.93;;;3.33;;
47167;SDS011;32931;47.778;17.806;2023-08-31T04:08:48;7.68;;;3.28;;
47167;SDS011;32931;47.778;17.806;2023-08-31T04:11:15;8.93;;;3.10;;
47167;SDS011;32931;47.778;17.806;2023-08-31T04:13:41;7.70;;;3.20;;
47167;SDS011;32931;47.778;17.806;2023-08-31T04:16:07;5.93;;;3.42;;
47167;SDS011;32931;47.778;17.806;2023-08-31T04:18:33;6.43;;;3.13;;
47167;SDS011;32931;47.778;17.806;2023-08-31T04:20:59;6.65;;;3.38;;
47167;SDS011;32931;47.778;17.806;2023-08-31T04:23:29;5.82;;;3.28;;
47167;SDS011;32931;47.778;17.806;2023-08-31T04:25:55;10.90;;;3.78;;
47167;SDS011;32931;47.778;17.806;2023-08-31T04:28:23;10.30;;;4.07;;
47167;SDS011;32931;47.778;17.806;2023-08-31T04:30:50;9.93;;;3.92;;
47167;SDS011;32931;47.778;17.806;2023-08-31T04:33:16;4.35;;;3.10;;
47167;SDS011;32931;47.778;17.806;2023-08-31T04:35:42;5.70;;;3.33;;
47167;SDS011;32931;47.778;17.806;2023-08-31T04:38:09;4.80;;;2.97;;
47167;SDS011;32931;47.778;17.806;2023-08-31T04:40:35;5.10;;;3.47;;
47167;SDS011;32931;47.778;17.806;2023-08-31T04:43:02;4.72;;;3.35;;
47167;SDS011;32931;47.778;17.806;2023-08-31T04:45:29;5.43;;;3.22;;
47167;SDS011;32931;47.778;17.806;2023-08-31T04:47:56;6.85;;;3.35;;
47167;SDS011;32931;47.778;17.806;2023-08-31T04:50:22;4.93;;;3.42;;
47167;SDS011;32931;47.778;17.806;2023-08-31T04:52:48;4.53;;;3.38;;
47167;SDS011;32931;47.778;17.806;2023-08-31T04:55:14;5.10;;;3.40;;
47167;SDS011;32931;47.778;17.806;2023-08-31T04:57:40;10.82;;;3.63;;
47167;SDS011;32931;47.778;17.806;2023-08-31T05:00:06;7.80;;;3.88;;
47167;SDS011;32931;47.778;17.806;2023-08-31T05:02:37;7.80;;;3.20;;
47167;SDS011;32931;47.778;17.806;2023-08-31T05:05:04;6.10;;;3.25;;
47167;SDS011;32931;47.778;17.806;2023-08-31T05:07:31;6.53;;;3.63;;
47167;SDS011;32931;47.778;17.806;2023-08-31T05:09:57;6.30;;;3.67;;
47167;SDS011;32931;47.778;17.806;2023-08-31T05:12:23;10.07;;;3.63;;
47167;SDS011;32931;47.778;17.806;2023-08-31T05:14:49;5.03;;;3.30;;
47167;SDS011;32931;47.778;17.806;2023-08-31T05:17:15;5.90;;;3.58;;
47167;SDS011;32931;47.778;17.806;2023-08-31T05:19:42;8.98;;;3.42;;
47167;SDS011;32931;47.778;17.806;2023-08-31T05:22:08;10.52;;;3.63;;
47167;SDS011;32931;47.778;17.806;2023-08-31T05:24:34;5.80;;;3.50;;
47167;SDS011;32931;47.778;17.806;2023-08-31T05:27:00;4.93;;;3.20;;
47167;SDS011;32931;47.778;17.806;2023-08-31T05:29:26;5.68;;;3.20;;
47167;SDS011;32931;47.778;17.806;2023-08-31T05:31:52;5.85;;;3.60;;
47167;SDS011;32931;47.778;17.806;2023-08-31T05:34:20;4.80;;;3.58;;
47167;SDS011;32931;47.778;17.806;2023-08-31T05:36:48;7.88;;;3.97;;
47167;SDS011;32931;47.778;17.806;2023-08-31T05:39:14;6.07;;;3.58;;
47167;SDS011;32931;47.778;17.806;2023-08-31T05:41:42;4.55;;;3.22;;
47167;SDS011;32931;47.778;17.806;2023-08-31T05:44:09;6.93;;;3.53;;
47167;SDS011;32931;47.778;17.806;2023-08-31T05:46:36;7.05;;;3.33;;
47167;SDS011;32931;47.778;17.806;2023-08-31T05:49:04;9.43;;;3.40;;
47167;SDS011;32931;47.778;17.806;2023-08-31T05:51:30;4.85;;;2.97;;
47167;SDS011;32931;47.778;17.806;2023-08-31T05:53:56;6.38;;;2.83;;
47167;SDS011;32931;47.778;17.806;2023-08-31T05:56:22;4.30;;;2.90;;
47167;SDS011;32931;47.778;17.806;2023-08-31T05:58:48;5.30;;;3.05;;
47167;SDS011;32931;47.778;17.806;2023-08-31T06:01:15;7.18;;;3.28;;
47167;SDS011;32931;47.778;17.806;2023-08-31T06:03:42;6.03;;;3.17;;
47167;SDS011;32931;47.778;17.806;2023-08-31T06:06:08;8.88;;;3.20;;
47167;SDS011;32931;47.778;17.806;2023-08-31T06:08:34;3.88;;;3.05;;
47167;SDS011;32931;47.778;17.806;2023-08-31T06:11:01;5.20;;;3.03;;
47167;SDS011;32931;47.778;17.806;2023-08-31T06:13:27;6.47;;;2.92;;
47167;SDS011;32931;47.778;17.806;2023-08-31T06:15:53;4.70;;;2.95;;
47167;SDS011;32931;47.778;17.806;2023-08-31T06:18:21;12.98;;;3.65;;
47167;SDS011;32931;47.778;17.806;2023-08-31T06:20:48;3.80;;;2.88;;
47167;SDS011;32931;47.778;17.806;2023-08-31T06:23:15;4.38;;;2.63;;
47167;SDS011;32931;47.778;17.806;2023-08-31T06:25:41;7.47;;;3.00;;
47167;SDS011;32931;47.778;17.806;2023-08-31T06:28:07;5.18;;;3.30;;
47167;SDS011;32931;47.778;17.806;2023-08-31T06:30:36;4.18;;;2.92;;
47167;SDS011;32931;47.778;17.806;2023-08-31T06:33:03;6.57;;;2.70;;
47167;SDS011;32931;47.778;17.806;2023-08-31T06:35:29;7.32;;;2.90;;
47167;SDS011;32931;47.778;17.806;2023-08-31T06:37:56;4.82;;;2.90;;
47167;SDS011;32931;47.778;17.806;2023-08-31T06:40:24;6.75;;;2.90;;
47167;SDS011;32931;47.778;17.806;2023-08-31T06:42:50;4.65;;;3.05;;
47167;SDS011;32931;47.778;17.806;2023-08-31T06:45:16;4.35;;;3.03;;
47167;SDS011;32931;47.778;17.806;2023-08-31T06:47:42;5.47;;;2.70;;
47167;SDS011;32931;47.778;17.806;2023-08-31T06:50:09;5.55;;;2.88;;
47167;SDS011;32931;47.778;17.806;2023-08-31T06:52:35;5.78;;;3.08;;
47167;SDS011;32931;47.778;17.806;2023-08-31T06:55:02;6.22;;;2.92;;
47167;SDS011;32931;47.778;17.806;2023-08-31T06:57:28;7.70;;;3.08;;
47167;SDS011;32931;47.778;17.806;2023-08-31T06:59:54;4.38;;;2.95;;
47167;SDS011;32931;47.778;17.806;2023-08-31T07:02:21;7.72;;;3.55;;
47167;SDS011;32931;47.778;17.806;2023-08-31T07:04:50;7.78;;;3.00;;
47167;SDS011;32931;47.778;17.806;2023-08-31T07:07:17;4.90;;;2.88;;
47167;SDS011;32931;47.778;17.806;2023-08-31T07:09:45;5.72;;;2.80;;
47167;SDS011;32931;47.778;17.806;2023-08-31T07:12:12;6.40;;;3.20;;
47167;SDS011;32931;47.778;17.806;2023-08-31T07:14:38;13.77;;;3.38;;
47167;SDS011;32931;47.778;17.806;2023-08-31T07:17:04;5.88;;;3.13;;
47167;SDS011;32931;47.778;17.806;2023-08-31T07:19:30;6.93;;;4.20;;
47167;SDS011;32931;47.778;17.806;2023-08-31T07:21:57;4.65;;;3.20;;
47167;SDS011;32931;47.778;17.806;2023-08-31T07:24:23;6.70;;;3.25;;
47167;SDS011;32931;47.778;17.806;2023-08-31T07:26:50;8.70;;;3.95;;
47167;SDS011;32931;47.778;17.806;2023-08-31T07:29:16;7.85;;;3.53;;
47167;SDS011;32931;47.778;17.806;2023-08-31T07:31:42;5.15;;;3.50;;
47167;SDS011;32931;47.778;17.806;2023-08-31T07:34:08;5.15;;;2.88;;
47167;SDS011;32931;47.778;17.806;2023-08-31T07:36:34;4.45;;;2.83;;
47167;SDS011;32931;47.778;17.806;2023-08-31T07:39:00;4.95;;;3.10;;
47167;SDS011;32931;47.778;17.806;2023-08-31T07:41:27;6.57;;;2.60;;
47167;SDS011;32931;47.778;17.806;2023-08-31T07:43:53;7.15;;;2.88;;
47167;SDS011;32931;47.778;17.806;2023-08-31T07:46:19;3.70;;;2.88;;
47167;SDS011;32931;47.778;17.806;2023-08-31T07:48:45;4.25;;;2.50;;
47167;SDS011;32931;47.778;17.806;2023-08-31T07:51:14;4.50;;;2.80;;
47167;SDS011;32931;47.778;17.806;2023-08-31T07:53:40;6.25;;;2.95;;
47167;SDS011;32931;47.778;17.806;2023-08-31T07:56:06;3.92;;;2.83;;
47167;SDS011;32931;47.778;17.806;2023-08-31T07:58:32;4.18;;;2.33;;
47167;SDS011;32931;47.778;17.806;2023-08-31T08:00:58;3.60;;;2.75;;
47167;SDS011;32931;47.778;17.806;2023-08-31T08:03:24;6.18;;;2.70;;
47167;SDS011;32931;47.778;17.806;2023-08-31T08:05:51;4.25;;;2.40;;
47167;SDS011;32931;47.778;17.806;2023-08-31T08:08:17;4.00;;;2.65;;
47167;SDS011;32931;47.778;17.806;2023-08-31T08:10:43;4.00;;;2.40;;
47167;SDS011;32931;47.778;17.806;2023-08-31T08:13:09;2.67;;;2.08;;
47167;SDS011;32931;47.778;17.806;2023-08-31T08:15:36;4.07;;;2.20;;
47167;SDS011;32931;47.778;17.806;2023-08-31T08:18:03;4.30;;;2.33;;
47167;SDS011;32931;47.778;17.806;2023-08-31T08:20:29;4.90;;;1.92;;
47167;SDS011;32931;47.778;17.806;2023-08-31T08:22:57;5.43;;;2.10;;
47167;SDS011;32931;47.778;17.806;2023-08-31T08:25:24;6.97;;;2.30;;
47167;SDS011;32931;47.778;17.806;2023-08-31T08:27:50;5.30;;;2.13;;
47167;SDS011;32931;47.778;17.806;2023-08-31T08:30:16;4.53;;;2.30;;
47167;SDS011;32931;47.778;17.806;2023-08-31T08:32:44;3.13;;;2.25;;
47167;SDS011;32931;47.778;17.806;2023-08-31T08:35:10;4.65;;;2.22;;
47167;SDS011;32931;47.778;17.806;2023-08-31T08:37:36;4.00;;;2.20;;
47167;SDS011;32931;47.778;17.806;2023-08-31T08:40:02;2.63;;;2.10;;
47167;SDS011;32931;47.778;17.806;2023-08-31T08:42:32;5.35;;;2.53;;
47167;SDS011;32931;47.778;17.806;2023-08-31T08:45:04;4.25;;;2.70;;
47167;SDS011;32931;47.778;17.806;2023-08-31T08:47:34;6.72;;;2.38;;
47167;SDS011;32931;47.778;17.806;2023-08-31T08:50:01;6.75;;;2.10;;
47167;SDS011;32931;47.778;17.806;2023-08-31T08:52:28;5.60;;;1.92;;
47167;SDS011;32931;47.778;17.806;2023-08-31T08:54:54;3.20;;;2.08;;
47167;SDS011;32931;47.778;17.806;2023-08-31T08:57:21;3.67;;;2.00;;
47167;SDS011;32931;47.778;17.806;2023-08-31T08:59:48;6.10;;;2.05;;
47167;SDS011;32931;47.778;17.806;2023-08-31T09:02:14;5.18;;;2.22;;
47167;SDS011;32931;47.778;17.806;2023-08-31T09:04:40;3.72;;;2.30;;
47167;SDS011;32931;47.778;17.806;2023-08-31T09:07:06;5.07;;;2.20;;
47167;SDS011;32931;47.778;17.806;2023-08-31T09:09:32;3.92;;;1.95;;
47167;SDS011;32931;47.778;17.806;2023-08-31T09:12:15;4.03;;;1.98;;
47167;SDS011;32931;47.778;17.806;2023-08-31T09:14:42;4.90;;;1.90;;
47167;SDS011;32931;47.778;17.806;2023-08-31T09:17:08;2.58;;;1.73;;
47167;SDS011;32931;47.778;17.806;2023-08-31T09:19:35;5.05;;;2.50;;
47167;SDS011;32931;47.778;17.806;2023-08-31T09:22:01;3.42;;;1.80;;
47167;SDS011;32931;47.778;17.806;2023-08-31T09:24:27;3.53;;;2.17;;
47167;SDS011;32931;47.778;17.806;2023-08-31T09:26:56;2.78;;;1.85;;
47167;SDS011;32931;47.778;17.806;2023-08-31T09:29:24;4.15;;;2.15;;
47167;SDS011;32931;47.778;17.806;2023-08-31T09:31:50;4.07;;;2.05;;
47167;SDS011;32931;47.778;17.806;2023-08-31T09:34:17;3.47;;;1.90;;
47167;SDS011;32931;47.778;17.806;2023-08-31T09:36:44;4.50;;;2.05;;
47167;SDS011;32931;47.778;17.806;2023-08-31T09:39:10;5.00;;;1.73;;
47167;SDS011;32931;47.778;17.806;2023-08-31T09:42:12;4.50;;;1.80;;
47167;SDS011;32931;47.778;17.806;2023-08-31T09:44:31;3.63;;;1.60;;
47167;SDS011;32931;47.778;17.806;2023-08-31T09:46:57;3.00;;;1.75;;
47167;SDS011;32931;47.778;17.806;2023-08-31T09:49:24;4.85;;;1.60;;
47167;SDS011;32931;47.778;17.806;2023-08-31T09:51:51;2.25;;;1.70;;
47167;SDS011;32931;47.778;17.806;2023-08-31T09:54:19;4.80;;;1.95;;
47167;SDS011;32931;47.778;17.806;2023-08-31T09:56:47;2.60;;;1.63;;
47167;SDS011;32931;47.778;17.806;2023-08-31T09:59:14;5.35;;;2.00;;
47167;SDS011;32931;47.778;17.806;2023-08-31T10:01:43;5.78;;;2.95;;
47167;SDS011;32931;47.778;17.806;2023-08-31T10:04:11;6.05;;;1.88;;
47167;SDS011;32931;47.778;17.806;2023-08-31T10:06:38;3.28;;;1.52;;
47167;SDS011;32931;47.778;17.806;2023-08-31T10:09:06;3.85;;;2.10;;
47167;SDS011;32931;47.778;17.806;2023-08-31T10:11:35;3.78;;;1.83;;
47167;SDS011;32931;47.778;17.806;2023-08-31T10:14:02;3.90;;;1.60;;
47167;SDS011;32931;47.778;17.806;2023-08-31T10:16:29;2.65;;;1.50;;
47167;SDS011;32931;47.778;17.806;2023-08-31T10:18:56;5.20;;;1.58;;
47167;SDS011;32931;47.778;17.806;2023-08-31T10:21:22;4.68;;;1.70;;
47167;SDS011;32931;47.778;17.806;2023-08-31T10:23:49;3.92;;;1.50;;
47167;SDS011;32931;47.778;17.806;2023-08-31T10:26:26;5.18;;;1.55;;
47167;SDS011;32931;47.778;17.806;2023-08-31T10:28:54;7.20;;;1.70;;
47167;SDS011;32931;47.778;17.806;2023-08-31T10:31:21;5.32;;;1.88;;
47167;SDS011;32931;47.778;17.806;2023-08-31T10:34:09;4.53;;;1.60;;
47167;SDS011;32931;47.778;17.806;2023-08-31T10:36:38;5.30;;;1.65;;
47167;SDS011;32931;47.778;17.806;2023-08-31T10:41:39;5.20;;;1.80;;
47167;SDS011;32931;47.778;17.806;2023-08-31T10:44:24;4.75;;;1.67;;
47167;SDS011;32931;47.778;17.806;2023-08-31T10:46:52;4.78;;;1.80;;
47167;SDS011;32931;47.778;17.806;2023-08-31T10:49:20;2.78;;;1.52;;
47167;SDS011;32931;47.778;17.806;2023-08-31T10:51:57;4.93;;;1.90;;
47167;SDS011;32931;47.778;17.806;2023-08-31T10:54:40;2.92;;;1.80;;
47167;SDS011;32931;47.778;17.806;2023-08-31T10:57:06;2.45;;;1.60;;
47167;SDS011;32931;47.778;17.806;2023-08-31T10:59:48;5.45;;;1.77;;
47167;SDS011;32931;47.778;17.806;2023-08-31T11:05:00;12.00;;;2.30;;
47167;SDS011;32931;47.778;17.806;2023-08-31T11:07:30;4.85;;;1.67;;
47167;SDS011;32931;47.778;17.806;2023-08-31T11:12:43;4.88;;;1.85;;
47167;SDS011;32931;47.778;17.806;2023-08-31T11:15:11;7.40;;;2.10;;
47167;SDS011;32931;47.778;17.806;2023-08-31T11:17:41;2.72;;;1.70;;
47167;SDS011;32931;47.778;17.806;2023-08-31T11:20:17;4.40;;;1.90;;
47167;SDS011;32931;47.778;17.806;2023-08-31T11:22:45;4.03;;;1.92;;
47167;SDS011;32931;47.778;17.806;2023-08-31T11:25:15;3.78;;;1.88;;
47167;SDS011;32931;47.778;17.806;2023-08-31T11:27:52;4.15;;;1.83;;
47167;SDS011;32931;47.778;17.806;2023-08-31T11:30:19;5.63;;;1.92;;
47167;SDS011;32931;47.778;17.806;2023-08-31T11:32:46;4.70;;;2.00;;
47167;SDS011;32931;47.778;17.806;2023-08-31T11:35:14;5.72;;;2.10;;
47167;SDS011;32931;47.778;17.806;2023-08-31T11:37:44;3.58;;;2.15;;
47167;SDS011;32931;47.778;17.806;2023-08-31T11:40:11;4.28;;;1.70;;
47167;SDS011;32931;47.778;17.806;2023-08-31T11:42:40;3.47;;;1.75;;
47167;SDS011;32931;47.778;17.806;2023-08-31T11:45:07;3.45;;;2.17;;
47167;SDS011;32931;47.778;17.806;2023-08-31T11:47:35;6.38;;;1.92;;
47167;SDS011;32931;47.778;17.806;2023-08-31T11:50:01;5.53;;;2.00;;
47167;SDS011;32931;47.778;17.806;2023-08-31T11:52:32;5.53;;;1.60;;
47167;SDS011;32931;47.778;17.806;2023-08-31T11:54:59;3.15;;;1.58;;
47167;SDS011;32931;47.778;17.806;2023-08-31T11:57:25;3.83;;;1.80;;
47167;SDS011;32931;47.778;17.806;2023-08-31T11:59:54;3.40;;;1.65;;
47167;SDS011;32931;47.778;17.806;2023-08-31T12:02:23;3.15;;;1.48;;
47167;SDS011;32931;47.778;17.806;2023-08-31T12:04:50;5.53;;;1.60;;
47167;SDS011;32931;47.778;17.806;2023-08-31T12:07:17;3.20;;;1.50;;
47167;SDS011;32931;47.778;17.806;2023-08-31T12:09:46;2.83;;;1.38;;
47167;SDS011;32931;47.778;17.806;2023-08-31T12:12:14;2.35;;;1.55;;
47167;SDS011;32931;47.778;17.806;2023-08-31T12:14:42;3.35;;;1.40;;
47167;SDS011;32931;47.778;17.806;2023-08-31T12:17:09;5.60;;;1.40;;
47167;SDS011;32931;47.778;17.806;2023-08-31T12:19:38;4.10;;;1.42;;
47167;SDS011;32931;47.778;17.806;2023-08-31T12:22:05;4.93;;;1.60;;
47167;SDS011;32931;47.778;17.806;2023-08-31T12:27:06;2.28;;;1.15;;
47167;SDS011;32931;47.778;17.806;2023-08-31T12:29:33;2.45;;;1.45;;
47167;SDS011;32931;47.778;17.806;2023-08-31T12:31:59;4.68;;;1.20;;
47167;SDS011;32931;47.778;17.806;2023-08-31T12:34:25;4.40;;;1.48;;
47167;SDS011;32931;47.778;17.806;2023-08-31T12:36:51;2.67;;;1.23;;
47167;SDS011;32931;47.778;17.806;2023-08-31T12:39:18;3.15;;;1.40;;
47167;SDS011;32931;47.778;17.806;2023-08-31T12:41:44;3.53;;;1.23;;
47167;SDS011;32931;47.778;17.806;2023-08-31T12:44:10;1.85;;;1.17;;
47167;SDS011;32931;47.778;17.806;2023-08-31T12:46:36;2.50;;;1.23;;
47167;SDS011;32931;47.778;17.806;2023-08-31T12:49:03;4.88;;;1.20;;
47167;SDS011;32931;47.778;17.806;2023-08-31T12:51:29;2.25;;;1.50;;
47167;SDS011;32931;47.778;17.806;2023-08-31T12:53:56;2.42;;;1.40;;
47167;SDS011;32931;47.778;17.806;2023-08-31T12:56:23;6.53;;;1.50;;
47167;SDS011;32931;47.778;17.806;2023-08-31T12:58:52;4.20;;;1.40;;
47167;SDS011;32931;47.778;17.806;2023-08-31T13:01:19;6.53;;;1.40;;
47167;SDS011;32931;47.778;17.806;2023-08-31T13:03:46;2.42;;;1.20;;
47167;SDS011;32931;47.778;17.806;2023-08-31T13:06:13;5.80;;;1.23;;
47167;SDS011;32931;47.778;17.806;2023-08-31T13:08:42;3.60;;;1.38;;
47167;SDS011;32931;47.778;17.806;2023-08-31T13:11:10;2.33;;;1.40;;
47167;SDS011;32931;47.778;17.806;2023-08-31T13:13:38;3.03;;;1.35;;
47167;SDS011;32931;47.778;17.806;2023-08-31T13:16:04;2.75;;;1.42;;
47167;SDS011;32931;47.778;17.806;2023-08-31T13:18:30;2.35;;;1.15;;
47167;SDS011;32931;47.778;17.806;2023-08-31T13:20:56;4.20;;;1.50;;
47167;SDS011;32931;47.778;17.806;2023-08-31T13:23:23;4.38;;;1.38;;
47167;SDS011;32931;47.778;17.806;2023-08-31T13:25:49;1.85;;;1.10;;
47167;SDS011;32931;47.778;17.806;2023-08-31T13:28:16;2.67;;;1.38;;
47167;SDS011;32931;47.778;17.806;2023-08-31T13:30:42;3.25;;;1.17;;
47167;SDS011;32931;47.778;17.806;2023-08-31T13:33:08;2.40;;;1.17;;
47167;SDS011;32931;47.778;17.806;2023-08-31T13:35:34;3.30;;;1.30;;
47167;SDS011;32931;47.778;17.806;2023-08-31T13:38:01;3.50;;;1.45;;
47167;SDS011;32931;47.778;17.806;2023-08-31T13:40:28;1.90;;;1.35;;
47167;SDS011;32931;47.778;17.806;2023-08-31T13:42:56;3.22;;;1.20;;
47167;SDS011;32931;47.778;17.806;2023-08-31T13:45:26;3.60;;;1.50;;
47167;SDS011;32931;47.778;17.806;2023-08-31T13:47:53;4.45;;;1.23;;
47167;SDS011;32931;47.778;17.806;2023-08-31T13:50:19;2.55;;;1.25;;
47167;SDS011;32931;47.778;17.806;2023-08-31T13:52:45;2.38;;;1.30;;
47167;SDS011;32931;47.778;17.806;2023-08-31T13:55:11;3.63;;;1.30;;
47167;SDS011;32931;47.778;17.806;2023-08-31T13:57:38;3.75;;;1.48;;
47167;SDS011;32931;47.778;17.806;2023-08-31T14:00:07;3.40;;;1.30;;
47167;SDS011;32931;47.778;17.806;2023-08-31T14:02:35;2.72;;;1.30;;
47167;SDS011;32931;47.778;17.806;2023-08-31T14:05:04;3.08;;;1.38;;
47167;SDS011;32931;47.778;17.806;2023-08-31T14:07:34;5.30;;;1.23;;
47167;SDS011;32931;47.778;17.806;2023-08-31T14:10:01;5.28;;;1.38;;
47167;SDS011;32931;47.778;17.806;2023-08-31T14:12:30;1.92;;;1.17;;
47167;SDS011;32931;47.778;17.806;2023-08-31T14:14:57;5.50;;;1.20;;
47167;SDS011;32931;47.778;17.806;2023-08-31T14:17:23;1.92;;;1.20;;
47167;SDS011;32931;47.778;17.806;2023-08-31T14:19:49;3.22;;;1.20;;
47167;SDS011;32931;47.778;17.806;2023-08-31T14:22:16;4.45;;;1.02;;
47167;SDS011;32931;47.778;17.806;2023-08-31T14:24:42;3.67;;;1.45;;
47167;SDS011;32931;47.778;17.806;2023-08-31T14:27:08;1.65;;;1.20;;
47167;SDS011;32931;47.778;17.806;2023-08-31T14:29:34;4.82;;;1.20;;
47167;SDS011;32931;47.778;17.806;2023-08-31T14:32:02;2.17;;;1.20;;
47167;SDS011;32931;47.778;17.806;2023-08-31T14:34:28;4.28;;;1.50;;
47167;SDS011;32931;47.778;17.806;2023-08-31T14:36:55;3.25;;;1.40;;
47167;SDS011;32931;47.778;17.806;2023-08-31T14:39:23;4.47;;;0.95;;
47167;SDS011;32931;47.778;17.806;2023-08-31T14:41:58;4.00;;;1.40;;
47167;SDS011;32931;47.778;17.806;2023-08-31T14:44:24;2.63;;;1.23;;
47167;SDS011;32931;47.778;17.806;2023-08-31T14:46:51;2.53;;;1.10;;
47167;SDS011;32931;47.778;17.806;2023-08-31T14:49:18;1.98;;;1.23;;
47167;SDS011;32931;47.778;17.806;2023-08-31T14:51:44;7.57;;;1.50;;
47167;SDS011;32931;47.778;17.806;2023-08-31T14:54:10;2.65;;;1.10;;
47167;SDS011;32931;47.778;17.806;2023-08-31T14:56:36;5.95;;;1.30;;